sensor_id;sensor_type;location;lat;lon;timestamp;temperature;humidity
48876;DHT22;34689;51.644;5.618;2022-09-03T00:01:24;20.60;54.40
48876;DHT22;34689;51.644;5.618;2022-09-03T00:03:56;20.50;54.50
48876;DHT22;34689;51.644;5.618;2022-09-03T00:06:26;20.50;54.50
48876;DHT22;34689;51.644;5.618;2022-09-03T00:11:54;20.40;54.80
48876;DHT22;34689;51.644;5.618;2022-09-03T00:14:25;20.40;54.70
48876;DHT22;34689;51.644;5.618;2022-09-03T00:17:04;20.40;54.80
48876;DHT22;34689;51.644;5.618;2022-09-03T00:19:44;20.30;54.80
48876;DHT22;34689;51.644;5.618;2022-09-03T00:22:32;20.30;54.80
48876;DHT22;34689;51.644;5.618;2022-09-03T00:25:02;20.20;55.00
48876;DHT22;34689;51.644;5.618;2022-09-03T00:27:31;20.20;55.00
48876;DHT22;34689;51.644;5.618;2022-09-03T00:30:05;20.20;55.10
48876;DHT22;34689;51.644;5.618;2022-09-03T00:32:50;20.20;55.20
48876;DHT22;34689;51.644;5.618;2022-09-03T00:38:01;20.10;55.30
48876;DHT22;34689;51.644;5.618;2022-09-03T00:41:04;20.10;55.30
48876;DHT22;34689;51.644;5.618;2022-09-03T00:46:41;20.10;55.50
48876;DHT22;34689;51.644;5.618;2022-09-03T00:51:58;20.00;55.50
48876;DHT22;34689;51.644;5.618;2022-09-03T00:54:42;20.00;55.50
48876;DHT22;34689;51.644;5.618;2022-09-03T00:59:41;20.00;55.60
48876;DHT22;34689;51.644;5.618;2022-09-03T01:02:26;19.90;55.60
48876;DHT22;34689;51.644;5.618;2022-09-03T01:10:51;19.90;55.80
48876;DHT22;34689;51.644;5.618;2022-09-03T01:13:35;19.90;55.90
48876;DHT22;34689;51.644;5.618;2022-09-03T01:29:14;19.70;56.10
48876;DHT22;34689;51.644;5.618;2022-09-03T01:45:44;19.60;56.30
48876;DHT22;34689;51.644;5.618;2022-09-03T01:51:24;19.60;56.60
48876;DHT22;34689;51.644;5.618;2022-09-03T01:59:50;19.50;56.70
48876;DHT22;34689;51.644;5.618;2022-09-03T02:02:22;19.50;56.70
48876;DHT22;34689;51.644;5.618;2022-09-03T02:05:04;19.50;56.70
48876;DHT22;34689;51.644;5.618;2022-09-03T02:07:36;19.40;56.80
48876;DHT22;34689;51.644;5.618;2022-09-03T02:10:06;19.40;56.80
48876;DHT22;34689;51.644;5.618;2022-09-03T02:12:35;19.40;56.80
48876;DHT22;34689;51.644;5.618;2022-09-03T02:15:06;19.40;56.90
48876;DHT22;34689;51.644;5.618;2022-09-03T02:17:33;19.40;56.90
48876;DHT22;34689;51.644;5.618;2022-09-03T02:20:04;19.40;57.00
48876;DHT22;34689;51.644;5.618;2022-09-03T02:22:31;19.30;56.90
48876;DHT22;34689;51.644;5.618;2022-09-03T02:24:58;19.40;57.00
48876;DHT22;34689;51.644;5.618;2022-09-03T02:27:24;19.30;56.90
48876;DHT22;34689;51.644;5.618;2022-09-03T02:29:52;19.30;56.90
48876;DHT22;34689;51.644;5.618;2022-09-03T02:32:18;19.30;57.00
48876;DHT22;34689;51.644;5.618;2022-09-03T02:34:43;19.30;57.10
48876;DHT22;34689;51.644;5.618;2022-09-03T02:37:17;19.20;57.50
48876;DHT22;34689;51.644;5.618;2022-09-03T02:39:44;19.20;57.20
48876;DHT22;34689;51.644;5.618;2022-09-03T02:42:11;19.20;57.20
48876;DHT22;34689;51.644;5.618;2022-09-03T02:47:30;19.20;57.40
48876;DHT22;34689;51.644;5.618;2022-09-03T02:49:57;19.10;57.30
48876;DHT22;34689;51.644;5.618;2022-09-03T02:52:23;19.10;57.30
48876;DHT22;34689;51.644;5.618;2022-09-03T02:54:48;19.10;57.50
48876;DHT22;34689;51.644;5.618;2022-09-03T02:57:16;19.10;57.50
48876;DHT22;34689;51.644;5.618;2022-09-03T02:59:42;19.10;57.60
48876;DHT22;34689;51.644;5.618;2022-09-03T03:02:12;19.10;57.60
48876;DHT22;34689;51.644;5.618;2022-09-03T03:04:38;19.00;57.50
48876;DHT22;34689;51.644;5.618;2022-09-03T03:07:05;19.00;57.60
48876;DHT22;34689;51.644;5.618;2022-09-03T03:09:31;19.00;57.60
48876;DHT22;34689;51.644;5.618;2022-09-03T03:11:56;19.00;57.70
48876;DHT22;34689;51.644;5.618;2022-09-03T03:14:22;19.00;57.70
48876;DHT22;34689;51.644;5.618;2022-09-03T03:16:49;19.00;57.80
48876;DHT22;34689;51.644;5.618;2022-09-03T03:19:17;18.90;57.70
48876;DHT22;34689;51.644;5.618;2022-09-03T03:21:43;18.90;57.80
48876;DHT22;34689;51.644;5.618;2022-09-03T03:24:09;18.90;57.80
48876;DHT22;34689;51.644;5.618;2022-09-03T03:26:34;18.90;57.90
48876;DHT22;34689;51.644;5.618;2022-09-03T03:29:01;18.80;58.00
48876;DHT22;34689;51.644;5.618;2022-09-03T03:31:29;18.80;58.00
48876;DHT22;34689;51.644;5.618;2022-09-03T03:33:58;18.80;58.00
48876;DHT22;34689;51.644;5.618;2022-09-03T03:36:26;18.80;58.10
48876;DHT22;34689;51.644;5.618;2022-09-03T03:38:56;18.80;58.30
48876;DHT22;34689;51.644;5.618;2022-09-03T03:41:30;18.80;58.30
48876;DHT22;34689;51.644;5.618;2022-09-03T03:43:59;18.70;58.30
48876;DHT22;34689;51.644;5.618;2022-09-03T03:46:29;18.70;58.40
48876;DHT22;34689;51.644;5.618;2022-09-03T03:48:56;18.70;58.30
48876;DHT22;34689;51.644;5.618;2022-09-03T03:51:21;18.70;58.40
48876;DHT22;34689;51.644;5.618;2022-09-03T03:53:48;18.60;58.40
48876;DHT22;34689;51.644;5.618;2022-09-03T03:56:14;18.60;58.50
48876;DHT22;34689;51.644;5.618;2022-09-03T03:58:41;18.60;58.50
48876;DHT22;34689;51.644;5.618;2022-09-03T04:01:29;18.60;58.60
48876;DHT22;34689;51.644;5.618;2022-09-03T04:03:55;18.60;58.80
48876;DHT22;34689;51.644;5.618;2022-09-03T04:06:22;18.50;58.70
48876;DHT22;34689;51.644;5.618;2022-09-03T04:08:48;18.50;58.70
48876;DHT22;34689;51.644;5.618;2022-09-03T04:11:17;18.50;58.70
48876;DHT22;34689;51.644;5.618;2022-09-03T04:13:44;18.50;58.80
48876;DHT22;34689;51.644;5.618;2022-09-03T04:16:16;18.50;58.90
48876;DHT22;34689;51.644;5.618;2022-09-03T04:18:43;18.50;58.90
48876;DHT22;34689;51.644;5.618;2022-09-03T04:21:18;18.40;59.00
48876;DHT22;34689;51.644;5.618;2022-09-03T04:23:45;18.40;59.20
48876;DHT22;34689;51.644;5.618;2022-09-03T04:26:17;18.40;59.20
48876;DHT22;34689;51.644;5.618;2022-09-03T04:28:43;18.30;59.20
48876;DHT22;34689;51.644;5.618;2022-09-03T04:31:11;18.30;59.20
48876;DHT22;34689;51.644;5.618;2022-09-03T04:33:38;18.30;59.40
48876;DHT22;34689;51.644;5.618;2022-09-03T04:36:12;18.30;59.40
48876;DHT22;34689;51.644;5.618;2022-09-03T04:38:40;18.30;59.40
48876;DHT22;34689;51.644;5.618;2022-09-03T04:41:07;18.30;59.50
48876;DHT22;34689;51.644;5.618;2022-09-03T04:43:33;18.30;59.50
48876;DHT22;34689;51.644;5.618;2022-09-03T04:46:01;18.30;59.50
48876;DHT22;34689;51.644;5.618;2022-09-03T04:48:28;18.20;59.50
48876;DHT22;34689;51.644;5.618;2022-09-03T04:51:00;18.20;59.60
48876;DHT22;34689;51.644;5.618;2022-09-03T04:53:31;18.20;59.60
48876;DHT22;34689;51.644;5.618;2022-09-03T04:55:57;18.20;59.70
48876;DHT22;34689;51.644;5.618;2022-09-03T04:58:22;18.20;59.70
48876;DHT22;34689;51.644;5.618;2022-09-03T05:00:48;18.20;59.80
48876;DHT22;34689;51.644;5.618;2022-09-03T05:03:14;18.20;59.80
48876;DHT22;34689;51.644;5.618;2022-09-03T05:05:40;18.20;59.90
48876;DHT22;34689;51.644;5.618;2022-09-03T05:08:07;18.20;60.00
48876;DHT22;34689;51.644;5.618;2022-09-03T05:10:33;18.10;60.00
48876;DHT22;34689;51.644;5.618;2022-09-03T05:13:00;18.10;60.00
48876;DHT22;34689;51.644;5.618;2022-09-03T05:15:27;18.10;60.00
48876;DHT22;34689;51.644;5.618;2022-09-03T05:17:58;18.10;60.00
48876;DHT22;34689;51.644;5.618;2022-09-03T05:20:25;18.00;60.10
48876;DHT22;34689;51.644;5.618;2022-09-03T05:22:53;18.10;60.10
48876;DHT22;34689;51.644;5.618;2022-09-03T05:25:18;18.10;60.10
48876;DHT22;34689;51.644;5.618;2022-09-03T05:27:44;18.10;60.20
48876;DHT22;34689;51.644;5.618;2022-09-03T05:30:10;18.10;60.30
48876;DHT22;34689;51.644;5.618;2022-09-03T05:32:36;18.00;60.20
48876;DHT22;34689;51.644;5.618;2022-09-03T05:35:02;18.00;60.30
48876;DHT22;34689;51.644;5.618;2022-09-03T05:37:27;18.10;60.30
48876;DHT22;34689;51.644;5.618;2022-09-03T05:39:53;18.10;60.40
48876;DHT22;34689;51.644;5.618;2022-09-03T05:42:19;18.00;60.40
48876;DHT22;34689;51.644;5.618;2022-09-03T05:44:46;18.00;60.50
48876;DHT22;34689;51.644;5.618;2022-09-03T05:47:14;18.00;60.50
48876;DHT22;34689;51.644;5.618;2022-09-03T05:49:40;18.00;60.50
48876;DHT22;34689;51.644;5.618;2022-09-03T05:52:08;18.00;60.50
48876;DHT22;34689;51.644;5.618;2022-09-03T05:54:34;18.10;60.60
48876;DHT22;34689;51.644;5.618;2022-09-03T05:57:00;18.00;60.60
48876;DHT22;34689;51.644;5.618;2022-09-03T05:59:26;18.10;60.70
48876;DHT22;34689;51.644;5.618;2022-09-03T06:01:51;18.10;60.80
48876;DHT22;34689;51.644;5.618;2022-09-03T06:04:18;18.10;60.80
48876;DHT22;34689;51.644;5.618;2022-09-03T06:06:45;18.10;60.80
48876;DHT22;34689;51.644;5.618;2022-09-03T06:09:21;18.10;60.80
48876;DHT22;34689;51.644;5.618;2022-09-03T06:11:47;18.20;61.00
48876;DHT22;34689;51.644;5.618;2022-09-03T06:14:16;18.20;61.00
48876;DHT22;34689;51.644;5.618;2022-09-03T06:16:46;18.20;60.90
48876;DHT22;34689;51.644;5.618;2022-09-03T06:19:17;18.30;60.90
48876;DHT22;34689;51.644;5.618;2022-09-03T06:21:44;18.30;61.00
48876;DHT22;34689;51.644;5.618;2022-09-03T06:24:18;18.30;60.90
48876;DHT22;34689;51.644;5.618;2022-09-03T06:26:46;18.30;60.90
48876;DHT22;34689;51.644;5.618;2022-09-03T06:29:12;18.40;60.80
48876;DHT22;34689;51.644;5.618;2022-09-03T06:31:38;18.40;60.40
48876;DHT22;34689;51.644;5.618;2022-09-03T06:34:04;18.40;60.70
48876;DHT22;34689;51.644;5.618;2022-09-03T06:36:31;18.50;60.80
48876;DHT22;34689;51.644;5.618;2022-09-03T06:38:57;18.50;60.70
48876;DHT22;34689;51.644;5.618;2022-09-03T06:41:27;18.60;60.70
48876;DHT22;34689;51.644;5.618;2022-09-03T06:44:05;18.60;61.40
48876;DHT22;34689;51.644;5.618;2022-09-03T06:46:34;18.70;60.90
48876;DHT22;34689;51.644;5.618;2022-09-03T06:49:00;18.70;60.60
48876;DHT22;34689;51.644;5.618;2022-09-03T06:51:28;18.80;60.60
48876;DHT22;34689;51.644;5.618;2022-09-03T06:53:59;18.80;60.70
48876;DHT22;34689;51.644;5.618;2022-09-03T06:56:25;18.90;60.70
48876;DHT22;34689;51.644;5.618;2022-09-03T06:58:56;18.90;60.60
48876;DHT22;34689;51.644;5.618;2022-09-03T07:01:27;19.00;60.60
48876;DHT22;34689;51.644;5.618;2022-09-03T07:04:03;19.10;60.50
48876;DHT22;34689;51.644;5.618;2022-09-03T07:06:39;19.10;60.50
48876;DHT22;34689;51.644;5.618;2022-09-03T07:09:07;19.10;60.50
48876;DHT22;34689;51.644;5.618;2022-09-03T07:11:33;19.10;60.40
48876;DHT22;34689;51.644;5.618;2022-09-03T07:14:01;19.20;60.40
48876;DHT22;34689;51.644;5.618;2022-09-03T07:16:31;19.20;60.40
48876;DHT22;34689;51.644;5.618;2022-09-03T07:18:57;19.20;60.40
48876;DHT22;34689;51.644;5.618;2022-09-03T07:21:27;19.30;60.50
48876;DHT22;34689;51.644;5.618;2022-09-03T07:23:54;19.30;60.60
48876;DHT22;34689;51.644;5.618;2022-09-03T07:26:25;19.30;60.50
48876;DHT22;34689;51.644;5.618;2022-09-03T07:28:52;19.30;60.60
48876;DHT22;34689;51.644;5.618;2022-09-03T07:31:24;19.30;60.60
48876;DHT22;34689;51.644;5.618;2022-09-03T07:34:11;19.30;60.50
48876;DHT22;34689;51.644;5.618;2022-09-03T07:36:39;19.40;60.60
48876;DHT22;34689;51.644;5.618;2022-09-03T07:39:10;19.40;60.50
48876;DHT22;34689;51.644;5.618;2022-09-03T07:41:36;19.40;60.50
48876;DHT22;34689;51.644;5.618;2022-09-03T07:44:02;19.40;60.50
48876;DHT22;34689;51.644;5.618;2022-09-03T07:46:32;19.50;60.50
48876;DHT22;34689;51.644;5.618;2022-09-03T07:48:59;19.50;60.50
48876;DHT22;34689;51.644;5.618;2022-09-03T07:51:29;19.60;60.40
48876;DHT22;34689;51.644;5.618;2022-09-03T07:53:57;19.60;60.40
48876;DHT22;34689;51.644;5.618;2022-09-03T07:56:24;19.60;60.40
48876;DHT22;34689;51.644;5.618;2022-09-03T07:58:51;19.70;60.50
48876;DHT22;34689;51.644;5.618;2022-09-03T08:01:19;19.70;60.20
48876;DHT22;34689;51.644;5.618;2022-09-03T08:03:47;19.80;60.30
48876;DHT22;34689;51.644;5.618;2022-09-03T08:06:15;19.80;60.30
48876;DHT22;34689;51.644;5.618;2022-09-03T08:08:41;19.80;60.20
48876;DHT22;34689;51.644;5.618;2022-09-03T08:11:13;19.90;60.30
48876;DHT22;34689;51.644;5.618;2022-09-03T08:13:42;19.90;60.30
48876;DHT22;34689;51.644;5.618;2022-09-03T08:16:08;20.00;60.30
48876;DHT22;34689;51.644;5.618;2022-09-03T08:18:35;20.00;60.20
48876;DHT22;34689;51.644;5.618;2022-09-03T08:21:15;20.10;60.30
48876;DHT22;34689;51.644;5.618;2022-09-03T08:23:43;20.10;60.30
48876;DHT22;34689;51.644;5.618;2022-09-03T08:26:10;20.10;60.30
48876;DHT22;34689;51.644;5.618;2022-09-03T08:28:37;20.20;60.20
48876;DHT22;34689;51.644;5.618;2022-09-03T08:31:19;20.20;60.10
48876;DHT22;34689;51.644;5.618;2022-09-03T08:33:46;20.30;60.10
48876;DHT22;34689;51.644;5.618;2022-09-03T08:36:17;20.30;60.20
48876;DHT22;34689;51.644;5.618;2022-09-03T08:38:44;20.30;60.00
48876;DHT22;34689;51.644;5.618;2022-09-03T08:41:16;20.40;60.10
48876;DHT22;34689;51.644;5.618;2022-09-03T08:46:32;20.40;60.10
48876;DHT22;34689;51.644;5.618;2022-09-03T08:49:01;20.50;60.00
48876;DHT22;34689;51.644;5.618;2022-09-03T08:51:27;20.50;60.00
48876;DHT22;34689;51.644;5.618;2022-09-03T08:53:53;20.60;60.00
48876;DHT22;34689;51.644;5.618;2022-09-03T08:56:27;20.70;59.90
48876;DHT22;34689;51.644;5.618;2022-09-03T08:58:56;20.70;60.00
48876;DHT22;34689;51.644;5.618;2022-09-03T09:04:32;20.90;59.80
48876;DHT22;34689;51.644;5.618;2022-09-03T09:07:06;21.00;59.50
48876;DHT22;34689;51.644;5.618;2022-09-03T09:15:29;21.20;59.80
48876;DHT22;34689;51.644;5.618;2022-09-03T09:23:14;21.40;59.40
48876;DHT22;34689;51.644;5.618;2022-09-03T09:25:49;21.50;59.40
48876;DHT22;34689;51.644;5.618;2022-09-03T09:28:22;21.60;59.30
48876;DHT22;34689;51.644;5.618;2022-09-03T09:30:50;21.60;59.40
48876;DHT22;34689;51.644;5.618;2022-09-03T09:33:17;21.70;59.30
48876;DHT22;34689;51.644;5.618;2022-09-03T09:35:45;21.70;59.10
48876;DHT22;34689;51.644;5.618;2022-09-03T09:38:12;21.80;59.00
48876;DHT22;34689;51.644;5.618;2022-09-03T09:40:40;21.90;59.00
48876;DHT22;34689;51.644;5.618;2022-09-03T09:43:18;22.00;59.00
48876;DHT22;34689;51.644;5.618;2022-09-03T09:45:51;22.20;58.80
48876;DHT22;34689;51.644;5.618;2022-09-03T09:48:30;22.40;58.50
48876;DHT22;34689;51.644;5.618;2022-09-03T09:54:14;24.10;57.50
48876;DHT22;34689;51.644;5.618;2022-09-03T09:56:45;27.10;53.80
48876;DHT22;34689;51.644;5.618;2022-09-03T09:59:13;29.80;50.40
48876;DHT22;34689;51.644;5.618;2022-09-03T10:01:43;31.50;48.30
48876;DHT22;34689;51.644;5.618;2022-09-03T10:06:38;34.00;45.90
48876;DHT22;34689;51.644;5.618;2022-09-03T10:09:31;34.80;44.60
48876;DHT22;34689;51.644;5.618;2022-09-03T10:17:46;35.90;42.60
48876;DHT22;34689;51.644;5.618;2022-09-03T10:26:35;35.60;43.40
48876;DHT22;34689;51.644;5.618;2022-09-03T10:28:48;34.90;42.70
48876;DHT22;34689;51.644;5.618;2022-09-03T10:36:45;31.30;47.60
48876;DHT22;34689;51.644;5.618;2022-09-03T10:39:31;30.60;47.80
48876;DHT22;34689;51.644;5.618;2022-09-03T10:51:05;29.60;47.90
48876;DHT22;34689;51.644;5.618;2022-09-03T10:56:24;29.30;48.30
48876;DHT22;34689;51.644;5.618;2022-09-03T10:59:29;29.10;48.80
48876;DHT22;34689;51.644;5.618;2022-09-03T11:10:41;28.60;48.70
48876;DHT22;34689;51.644;5.618;2022-09-03T11:13:32;28.50;48.90
48876;DHT22;34689;51.644;5.618;2022-09-03T11:16:09;28.40;49.00
48876;DHT22;34689;51.644;5.618;2022-09-03T11:18:48;28.40;49.60
48876;DHT22;34689;51.644;5.618;2022-09-03T11:21:20;28.40;48.90
48876;DHT22;34689;51.644;5.618;2022-09-03T11:23:51;28.40;48.60
48876;DHT22;34689;51.644;5.618;2022-09-03T11:26:19;28.30;48.50
48876;DHT22;34689;51.644;5.618;2022-09-03T11:31:32;28.20;48.80
48876;DHT22;34689;51.644;5.618;2022-09-03T11:34:07;28.10;48.90
48876;DHT22;34689;51.644;5.618;2022-09-03T11:36:38;28.10;48.70
48876;DHT22;34689;51.644;5.618;2022-09-03T11:41:40;28.00;48.80
48876;DHT22;34689;51.644;5.618;2022-09-03T11:44:17;27.90;49.00
48876;DHT22;34689;51.644;5.618;2022-09-03T11:46:57;28.00;49.20
48876;DHT22;34689;51.644;5.618;2022-09-03T11:49:30;28.10;49.40
48876;DHT22;34689;51.644;5.618;2022-09-03T11:52:02;28.10;49.20
48876;DHT22;34689;51.644;5.618;2022-09-03T11:54:32;28.10;48.90
48876;DHT22;34689;51.644;5.618;2022-09-03T11:57:12;28.10;48.90
48876;DHT22;34689;51.644;5.618;2022-09-03T11:59:39;28.00;49.20
48876;DHT22;34689;51.644;5.618;2022-09-03T12:02:27;28.00;48.20
48876;DHT22;34689;51.644;5.618;2022-09-03T12:05:20;28.00;48.70
48876;DHT22;34689;51.644;5.618;2022-09-03T12:08:34;27.90;48.70
48876;DHT22;34689;51.644;5.618;2022-09-03T12:14:17;27.90;48.90
48876;DHT22;34689;51.644;5.618;2022-09-03T12:19:54;28.00;49.00
48876;DHT22;34689;51.644;5.618;2022-09-03T12:22:25;28.10;49.30
48876;DHT22;34689;51.644;5.618;2022-09-03T12:24:53;28.10;49.10
48876;DHT22;34689;51.644;5.618;2022-09-03T12:27:21;28.10;48.90
48876;DHT22;34689;51.644;5.618;2022-09-03T12:29:55;28.20;49.10
48876;DHT22;34689;51.644;5.618;2022-09-03T12:32:28;28.30;49.10
48876;DHT22;34689;51.644;5.618;2022-09-03T12:34:56;28.30;48.90
48876;DHT22;34689;51.644;5.618;2022-09-03T12:37:25;28.40;48.60
48876;DHT22;34689;51.644;5.618;2022-09-03T12:39:55;28.50;48.90
48876;DHT22;34689;51.644;5.618;2022-09-03T12:42:29;28.50;49.00
48876;DHT22;34689;51.644;5.618;2022-09-03T12:45:05;28.60;48.60
48876;DHT22;34689;51.644;5.618;2022-09-03T12:47:37;28.60;48.80
48876;DHT22;34689;51.644;5.618;2022-09-03T12:50:13;28.70;48.70
48876;DHT22;34689;51.644;5.618;2022-09-03T12:52:44;28.70;48.90
48876;DHT22;34689;51.644;5.618;2022-09-03T12:57:59;28.70;48.50
48876;DHT22;34689;51.644;5.618;2022-09-03T13:00:29;28.70;48.60
48876;DHT22;34689;51.644;5.618;2022-09-03T13:03:15;28.70;48.70
48876;DHT22;34689;51.644;5.618;2022-09-03T13:05:54;28.70;48.00
48876;DHT22;34689;51.644;5.618;2022-09-03T13:08:32;28.70;48.20
48876;DHT22;34689;51.644;5.618;2022-09-03T13:11:02;28.60;48.50
48876;DHT22;34689;51.644;5.618;2022-09-03T13:13:35;28.60;48.40
48876;DHT22;34689;51.644;5.618;2022-09-03T13:30:20;28.70;48.00
48876;DHT22;34689;51.644;5.618;2022-09-03T13:34:07;28.70;47.70
48876;DHT22;34689;51.644;5.618;2022-09-03T13:36:16;28.90;47.60
48876;DHT22;34689;51.644;5.618;2022-09-03T13:38:59;29.00;47.80
48876;DHT22;34689;51.644;5.618;2022-09-03T13:41:38;29.10;47.10
48876;DHT22;34689;51.644;5.618;2022-09-03T13:44:36;29.10;47.40
48876;DHT22;34689;51.644;5.618;2022-09-03T13:47:25;29.20;47.00
48876;DHT22;34689;51.644;5.618;2022-09-03T13:50:02;29.30;46.90
48876;DHT22;34689;51.644;5.618;2022-09-03T13:55:54;29.50;46.90
48876;DHT22;34689;51.644;5.618;2022-09-03T13:58:34;29.40;46.70
48876;DHT22;34689;51.644;5.618;2022-09-03T14:01:32;29.40;46.80
48876;DHT22;34689;51.644;5.618;2022-09-03T14:04:01;29.30;46.90
48876;DHT22;34689;51.644;5.618;2022-09-03T14:06:48;29.30;47.30
48876;DHT22;34689;51.644;5.618;2022-09-03T14:09:29;29.50;46.60
48876;DHT22;34689;51.644;5.618;2022-09-03T14:12:09;29.60;46.70
48876;DHT22;34689;51.644;5.618;2022-09-03T14:15:05;29.60;47.50
48876;DHT22;34689;51.644;5.618;2022-09-03T14:18:24;29.70;46.20
48876;DHT22;34689;51.644;5.618;2022-09-03T14:20:53;29.90;46.30
48876;DHT22;34689;51.644;5.618;2022-09-03T14:23:35;29.90;46.00
48876;DHT22;34689;51.644;5.618;2022-09-03T14:26:06;29.80;46.30
48876;DHT22;34689;51.644;5.618;2022-09-03T14:28:36;29.80;46.50
48876;DHT22;34689;51.644;5.618;2022-09-03T14:34:04;29.60;46.30
48876;DHT22;34689;51.644;5.618;2022-09-03T14:39:25;29.50;46.60
48876;DHT22;34689;51.644;5.618;2022-09-03T14:42:03;29.50;46.20
48876;DHT22;34689;51.644;5.618;2022-09-03T14:44:41;29.50;46.50
48876;DHT22;34689;51.644;5.618;2022-09-03T14:47:40;29.50;46.40
48876;DHT22;34689;51.644;5.618;2022-09-03T14:56:28;29.10;46.60
48876;DHT22;34689;51.644;5.618;2022-09-03T14:59:29;29.10;46.60
48876;DHT22;34689;51.644;5.618;2022-09-03T15:05:08;28.90;46.50
48876;DHT22;34689;51.644;5.618;2022-09-03T15:07:47;28.90;47.00
48876;DHT22;34689;51.644;5.618;2022-09-03T15:12:58;28.80;47.10
48876;DHT22;34689;51.644;5.618;2022-09-03T15:18:05;28.80;47.20
48876;DHT22;34689;51.644;5.618;2022-09-03T15:20:47;28.90;47.20
48876;DHT22;34689;51.644;5.618;2022-09-03T15:36:59;28.50;47.10
48876;DHT22;34689;51.644;5.618;2022-09-03T15:39:34;28.40;47.50
48876;DHT22;34689;51.644;5.618;2022-09-03T15:42:10;28.40;47.50
48876;DHT22;34689;51.644;5.618;2022-09-03T15:44:46;28.40;47.60
48876;DHT22;34689;51.644;5.618;2022-09-03T15:52:51;28.30;47.40
48876;DHT22;34689;51.644;5.618;2022-09-03T15:55:38;28.30;47.60
48876;DHT22;34689;51.644;5.618;2022-09-03T15:58:09;28.20;47.80
48876;DHT22;34689;51.644;5.618;2022-09-03T16:01:00;28.10;47.60
48876;DHT22;34689;51.644;5.618;2022-09-03T16:03:38;28.10;47.60
48876;DHT22;34689;51.644;5.618;2022-09-03T16:18:00;27.90;47.90
48876;DHT22;34689;51.644;5.618;2022-09-03T16:25:49;27.80;48.00
48876;DHT22;34689;51.644;5.618;2022-09-03T16:28:17;27.80;48.20
48876;DHT22;34689;51.644;5.618;2022-09-03T16:39:12;27.70;48.30
48876;DHT22;34689;51.644;5.618;2022-09-03T16:44:51;27.70;48.70
48876;DHT22;34689;51.644;5.618;2022-09-03T16:47:35;27.60;48.60
48876;DHT22;34689;51.644;5.618;2022-09-03T16:53:09;27.60;48.80
48876;DHT22;34689;51.644;5.618;2022-09-03T16:55:55;27.50;49.00
48876;DHT22;34689;51.644;5.618;2022-09-03T16:58:38;27.50;49.20
48876;DHT22;34689;51.644;5.618;2022-09-03T17:06:35;27.40;49.80
48876;DHT22;34689;51.644;5.618;2022-09-03T17:14:43;27.30;50.00
48876;DHT22;34689;51.644;5.618;2022-09-03T17:17:25;27.30;50.20
48876;DHT22;34689;51.644;5.618;2022-09-03T17:20:12;27.20;50.40
48876;DHT22;34689;51.644;5.618;2022-09-03T17:25:37;27.20;50.70
48876;DHT22;34689;51.644;5.618;2022-09-03T17:30:57;27.00;51.10
48876;DHT22;34689;51.644;5.618;2022-09-03T17:33:56;27.00;51.20
48876;DHT22;34689;51.644;5.618;2022-09-03T17:36:27;27.00;51.50
48876;DHT22;34689;51.644;5.618;2022-09-03T17:49:52;26.70;52.20
48876;DHT22;34689;51.644;5.618;2022-09-03T17:52:20;26.70;52.50
48876;DHT22;34689;51.644;5.618;2022-09-03T17:54:55;26.60;52.50
48876;DHT22;34689;51.644;5.618;2022-09-03T17:57:26;26.60;52.70
48876;DHT22;34689;51.644;5.618;2022-09-03T18:00:03;26.60;52.90
48876;DHT22;34689;51.644;5.618;2022-09-03T18:02:36;26.50;53.20
48876;DHT22;34689;51.644;5.618;2022-09-03T18:05:17;26.50;53.20
48876;DHT22;34689;51.644;5.618;2022-09-03T18:10:40;26.40;54.40
48876;DHT22;34689;51.644;5.618;2022-09-03T18:15:58;26.20;54.00
48876;DHT22;34689;51.644;5.618;2022-09-03T18:18:29;26.10;54.20
48876;DHT22;34689;51.644;5.618;2022-09-03T18:21:02;26.10;54.30
48876;DHT22;34689;51.644;5.618;2022-09-03T18:24:26;26.00;54.40
48876;DHT22;34689;51.644;5.618;2022-09-03T18:27:14;26.00;54.70
48876;DHT22;34689;51.644;5.618;2022-09-03T18:30:08;25.90;55.10
48876;DHT22;34689;51.644;5.618;2022-09-03T18:32:52;25.90;54.60
48876;DHT22;34689;51.644;5.618;2022-09-03T18:35:37;25.80;54.70
48876;DHT22;34689;51.644;5.618;2022-09-03T18:38:27;25.80;54.90
48876;DHT22;34689;51.644;5.618;2022-09-03T18:47:36;25.60;55.50
48876;DHT22;34689;51.644;5.618;2022-09-03T18:50:44;25.50;55.40
48876;DHT22;34689;51.644;5.618;2022-09-03T18:53:42;25.40;55.70
48876;DHT22;34689;51.644;5.618;2022-09-03T18:59:31;25.40;55.80
48876;DHT22;34689;51.644;5.618;2022-09-03T19:03:18;25.30;56.00
48876;DHT22;34689;51.644;5.618;2022-09-03T19:08:36;25.20;56.90
48876;DHT22;34689;51.644;5.618;2022-09-03T19:20:30;25.00;56.70
48876;DHT22;34689;51.644;5.618;2022-09-03T19:23:18;24.90;56.70
48876;DHT22;34689;51.644;5.618;2022-09-03T19:27:20;24.90;56.90
48876;DHT22;34689;51.644;5.618;2022-09-03T19:33:25;24.70;57.10
48876;DHT22;34689;51.644;5.618;2022-09-03T19:36:21;24.70;57.30
48876;DHT22;34689;51.644;5.618;2022-09-03T19:43:14;24.60;57.40
48876;DHT22;34689;51.644;5.618;2022-09-03T19:49:07;24.50;57.80
48876;DHT22;34689;51.644;5.618;2022-09-03T19:52:05;24.40;57.80
48876;DHT22;34689;51.644;5.618;2022-09-03T19:54:53;24.40;57.80
48876;DHT22;34689;51.644;5.618;2022-09-03T19:57:41;24.30;57.90
48876;DHT22;34689;51.644;5.618;2022-09-03T20:00:27;24.30;58.10
48876;DHT22;34689;51.644;5.618;2022-09-03T20:03:13;24.20;58.20
48876;DHT22;34689;51.644;5.618;2022-09-03T20:06:00;24.20;58.50
48876;DHT22;34689;51.644;5.618;2022-09-03T20:08:46;24.20;58.60
48876;DHT22;34689;51.644;5.618;2022-09-03T20:11:31;24.00;58.80
48876;DHT22;34689;51.644;5.618;2022-09-03T20:14:00;24.00;58.90
48876;DHT22;34689;51.644;5.618;2022-09-03T20:20:20;23.90;59.20
48876;DHT22;34689;51.644;5.618;2022-09-03T20:25:09;23.90;59.40
48876;DHT22;34689;51.644;5.618;2022-09-03T20:36:32;23.70;59.90
48876;DHT22;34689;51.644;5.618;2022-09-03T20:41:57;23.60;59.90
48876;DHT22;34689;51.644;5.618;2022-09-03T20:44:31;23.60;60.30
48876;DHT22;34689;51.644;5.618;2022-09-03T20:55:24;23.40;60.70
48876;DHT22;34689;51.644;5.618;2022-09-03T21:00:21;23.40;60.70
48876;DHT22;34689;51.644;5.618;2022-09-03T21:11:21;23.20;61.30
48876;DHT22;34689;51.644;5.618;2022-09-03T21:16:44;23.10;61.40
48876;DHT22;34689;51.644;5.618;2022-09-03T21:19:32;23.10;61.50
48876;DHT22;34689;51.644;5.618;2022-09-03T21:24:30;23.00;61.70
48876;DHT22;34689;51.644;5.618;2022-09-03T21:27:03;23.00;61.90
48876;DHT22;34689;51.644;5.618;2022-09-03T21:29:42;22.90;62.70
48876;DHT22;34689;51.644;5.618;2022-09-03T21:32:22;22.90;62.20
48876;DHT22;34689;51.644;5.618;2022-09-03T21:37:17;22.90;62.40
48876;DHT22;34689;51.644;5.618;2022-09-03T21:39:50;22.80;62.40
48876;DHT22;34689;51.644;5.618;2022-09-03T21:42:38;22.80;62.50
48876;DHT22;34689;51.644;5.618;2022-09-03T21:47:52;22.80;63.00